Time;durP1;ratioP1;P1;durP2;ratioP2;P2;SDS_P1;SDS_P2;PMS_P1;PMS_P2;Temp;Humidity;BMP_temperature;BMP_pressure;BME280_temperature;BME280_humidity;BME280_pressure;Samples;Min_cycle;Max_cycle;Signal;HPM_P1;HPM_P2
2021/01/30 00:00:31;;;;;;;3.50;1.07;;;;;;;;;;4837246;29;20207;-94
2021/01/30 00:02:59;;;;;;;1.70;0.80;;;;;;;;;;4817053;29;20227;-93
2021/01/30 00:05:28;;;;;;;3.20;0.77;;;;;;;;;;4823191;29;20220;-93
2021/01/30 00:08:04;;;;;;;1.73;0.90;;;;;;;;;;4833832;29;20195;-92
2021/01/30 00:10:32;;;;;;;3.97;0.90;;;;;;;;;;4824353;29;20207;-92
2021/01/30 00:13:01;;;;;;;2.67;0.70;;;;;;;;;;4820415;29;20218;-94
2021/01/30 00:15:29;;;;;;;1.90;0.70;;;;;;;;;;4838877;29;20207;-94
2021/01/30 00:17:58;;;;;;;1.77;0.70;;;;;;;;;;4827731;29;20214;-94
2021/01/30 00:20:27;;;;;;;1.17;0.53;;;;;;;;;;4823709;29;20198;-94
2021/01/30 00:22:57;;;;;;;2.77;0.87;;;;;;;;;;4836184;29;21309;-92
2021/01/30 00:25:26;;;;;;;2.30;0.60;;;;;;;;;;4821922;29;20231;-93
2021/01/30 00:27:55;;;;;;;2.87;0.70;;;;;;;;;;4821649;29;20206;-93
2021/01/30 00:30:25;;;;;;;2.10;0.70;;;;;;;;;;4819830;29;20199;-95
2021/01/30 00:32:54;;;;;;;1.17;0.60;;;;;;;;;;4836925;29;20211;-94
2021/01/30 00:35:23;;;;;;;3.73;0.80;;;;;;;;;;4826208;29;20188;-95
2021/01/30 00:37:51;;;;;;;2.90;0.50;;;;;;;;;;4841461;29;20207;-95
2021/01/30 00:40:20;;;;;;;4.40;0.77;;;;;;;;;;4821955;29;20211;-92
2021/01/30 00:42:48;;;;;;;0.83;0.60;;;;;;;;;;4821649;29;20214;-93
2021/01/30 00:45:18;;;;;;;2.87;0.50;;;;;;;;;;4821619;29;20239;-94
2021/01/30 00:47:48;;;;;;;3.00;0.53;;;;;;;;;;4836521;29;20205;-94
2021/01/30 00:50:17;;;;;;;4.33;0.80;;;;;;;;;;4850690;24;20247;-95
2021/01/30 00:52:46;;;;;;;2.63;0.70;;;;;;;;;;4836754;29;20216;-94
2021/01/30 00:55:23;;;;;;;0.80;0.50;;;;;;;;;;4834285;29;20210;-94
2021/01/30 00:57:55;;;;;;;5.83;0.80;;;;;;;;;;4856718;29;20191;-94
2021/01/30 01:00:27;;;;;;;2.93;0.70;;;;;;;;;;4838168;29;20206;-93
2021/01/30 01:02:59;;;;;;;3.63;0.67;;;;;;;;;;4841732;29;20242;-94
2021/01/30 01:05:40;;;;;;;1.07;0.60;;;;;;;;;;4822648;29;20245;-93
2021/01/30 01:08:08;;;;;;;1.53;0.70;;;;;;;;;;4824395;29;20204;-93
2021/01/30 01:10:37;;;;;;;2.17;0.60;;;;;;;;;;4830509;29;20215;-93
2021/01/30 01:13:04;;;;;;;1.53;0.70;;;;;;;;;;4832021;29;20231;-95
2021/01/30 01:15:32;;;;;;;1.93;0.60;;;;;;;;;;4833684;29;20203;-94
2021/01/30 01:18:01;;;;;;;4.33;0.70;;;;;;;;;;4837215;29;20211;-92
2021/01/30 01:20:29;;;;;;;3.00;0.73;;;;;;;;;;4820379;29;20208;-93
2021/01/30 01:22:58;;;;;;;2.70;0.83;;;;;;;;;;4836600;29;20215;-92
2021/01/30 01:25:26;;;;;;;2.43;0.80;;;;;;;;;;4835855;29;20223;-92
2021/01/30 01:27:54;;;;;;;1.07;0.53;;;;;;;;;;4849110;29;20200;-92
2021/01/30 01:30:23;;;;;;;2.07;0.70;;;;;;;;;;4812957;29;20238;-91
2021/01/30 01:32:52;;;;;;;2.27;0.90;;;;;;;;;;4836736;29;20227;-90
2021/01/30 01:35:25;;;;;;;4.00;0.80;;;;;;;;;;4837886;29;20210;-92
2021/01/30 01:37:54;;;;;;;1.13;0.87;;;;;;;;;;4825829;29;20222;-91
2021/01/30 01:40:25;;;;;;;2.17;0.67;;;;;;;;;;4854302;29;20223;-90
2021/01/30 01:42:58;;;;;;;2.60;0.80;;;;;;;;;;4840919;29;20208;-91
2021/01/30 01:45:27;;;;;;;2.97;0.80;;;;;;;;;;4833942;29;20238;-90
2021/01/30 01:47:56;;;;;;;3.07;1.10;;;;;;;;;;4844381;29;20223;-91
2021/01/30 01:50:37;;;;;;;1.50;0.60;;;;;;;;;;4833835;29;20235;-90
2021/01/30 01:53:10;;;;;;;2.33;0.73;;;;;;;;;;4844584;29;20226;-92
2021/01/30 01:55:43;;;;;;;2.17;0.73;;;;;;;;;;4838199;29;20358;-91
2021/01/30 01:58:12;;;;;;;3.37;0.87;;;;;;;;;;4834735;29;20220;-92
2021/01/30 02:00:43;;;;;;;2.03;0.90;;;;;;;;;;4838388;29;20212;-91
2021/01/30 02:03:12;;;;;;;5.93;1.13;;;;;;;;;;4839362;29;20237;-94
2021/01/30 02:05:42;;;;;;;4.10;1.10;;;;;;;;;;4824915;29;20227;-90
2021/01/30 02:08:13;;;;;;;3.77;0.80;;;;;;;;;;4849835;29;20219;-93
2021/01/30 02:10:47;;;;;;;4.47;0.97;;;;;;;;;;4842134;29;20188;-92
2021/01/30 02:13:20;;;;;;;3.07;1.30;;;;;;;;;;4835029;29;20238;-92
2021/01/30 02:15:49;;;;;;;3.23;0.80;;;;;;;;;;4836656;29;20208;-91
2021/01/30 02:18:25;;;;;;;1.67;0.60;;;;;;;;;;4820035;29;20271;-90
2021/01/30 02:21:53;;;;;;;3.23;1.27;;;;;;;;;;4836051;29;20207;-89
2021/01/30 02:24:54;;;;;;;2.63;0.70;;;;;;;;;;4802327;29;20223;-90
2021/01/30 02:27:41;;;;;;;4.37;0.77;;;;;;;;;;4820322;29;20226;-90
2021/01/30 02:30:31;;;;;;;4.20;1.00;;;;;;;;;;4851728;23;20245;-94
2021/01/30 02:33:14;;;;;;;3.40;0.70;;;;;;;;;;4833793;29;20516;-93
2021/01/30 02:36:00;;;;;;;4.80;1.37;;;;;;;;;;4848738;29;20207;-89
2021/01/30 02:38:29;;;;;;;6.43;1.23;;;;;;;;;;4850819;29;20217;-94
2021/01/30 02:41:01;;;;;;;4.20;0.97;;;;;;;;;;4837429;29;20194;-94
2021/01/30 02:43:34;;;;;;;3.43;1.07;;;;;;;;;;4850667;29;20218;-94
2021/01/30 02:46:06;;;;;;;3.43;0.87;;;;;;;;;;4840815;29;20246;-94
2021/01/30 02:48:37;;;;;;;4.17;1.23;;;;;;;;;;4837587;29;20355;-94
2021/01/30 02:51:08;;;;;;;4.37;0.90;;;;;;;;;;4827725;29;20219;-94
2021/01/30 02:53:38;;;;;;;3.27;0.70;;;;;;;;;;4830711;29;20206;-94
2021/01/30 02:56:06;;;;;;;4.33;0.80;;;;;;;;;;4836351;29;20983;-95
2021/01/30 02:58:37;;;;;;;5.63;1.00;;;;;;;;;;4836355;29;20216;-95
2021/01/30 03:01:05;;;;;;;4.10;1.10;;;;;;;;;;4841398;29;20187;-93
2021/01/30 03:03:34;;;;;;;5.13;0.83;;;;;;;;;;4828420;29;20211;-95
2021/01/30 03:06:07;;;;;;;4.17;1.20;;;;;;;;;;4826170;29;20230;-94
2021/01/30 03:08:37;;;;;;;6.27;1.20;;;;;;;;;;4848538;29;20208;-94
2021/01/30 03:11:08;;;;;;;4.23;0.70;;;;;;;;;;4838170;29;20202;-94
2021/01/30 03:13:41;;;;;;;3.97;1.00;;;;;;;;;;4841535;29;20226;-94
2021/01/30 03:16:12;;;;;;;3.20;1.00;;;;;;;;;;4831345;29;20202;-94
2021/01/30 03:18:46;;;;;;;4.23;1.53;;;;;;;;;;4839338;29;20328;-93
2021/01/30 03:21:15;;;;;;;5.47;1.23;;;;;;;;;;4838096;29;20245;-95
2021/01/30 03:23:43;;;;;;;2.83;1.07;;;;;;;;;;4840908;29;20199;-94
2021/01/30 03:26:14;;;;;;;2.93;1.00;;;;;;;;;;4843467;29;20225;-95
2021/01/30 03:28:42;;;;;;;3.00;0.87;;;;;;;;;;4846873;29;20194;-95
2021/01/30 03:31:10;;;;;;;3.90;0.90;;;;;;;;;;4845737;29;20198;-94
2021/01/30 03:33:38;;;;;;;10.27;1.23;;;;;;;;;;4840500;29;20233;-96
2021/01/30 03:36:06;;;;;;;3.33;1.20;;;;;;;;;;4840304;29;20217;-95
2021/01/30 03:38:36;;;;;;;3.17;0.90;;;;;;;;;;4836262;29;20199;-95
2021/01/30 03:41:04;;;;;;;1.77;0.77;;;;;;;;;;4833124;29;20195;-94
2021/01/30 03:43:32;;;;;;;6.30;1.00;;;;;;;;;;4838985;29;20431;-94
2021/01/30 03:46:00;;;;;;;2.90;0.90;;;;;;;;;;4828753;29;20217;-94
2021/01/30 03:48:28;;;;;;;1.20;0.70;;;;;;;;;;4836862;29;20211;-94
2021/01/30 03:50:55;;;;;;;6.00;1.03;;;;;;;;;;4831912;29;20221;-94
2021/01/30 03:53:23;;;;;;;3.00;0.93;;;;;;;;;;4833027;29;20210;-94
2021/01/30 03:55:52;;;;;;;4.20;1.00;;;;;;;;;;4842318;29;20242;-92
2021/01/30 03:58:20;;;;;;;2.23;0.80;;;;;;;;;;4849695;29;20650;-94
2021/01/30 04:00:48;;;;;;;5.67;1.37;;;;;;;;;;4838551;29;20217;-92
2021/01/30 04:03:15;;;;;;;2.67;1.00;;;;;;;;;;4829359;29;20222;-95
2021/01/30 04:05:47;;;;;;;2.00;0.60;;;;;;;;;;4829159;29;20223;-93
2021/01/30 04:08:15;;;;;;;2.33;0.77;;;;;;;;;;4854204;29;20220;-94
2021/01/30 04:10:43;;;;;;;6.70;1.07;;;;;;;;;;4838271;29;20179;-95
2021/01/30 04:13:12;;;;;;;2.73;0.87;;;;;;;;;;4847473;29;20229;-95
2021/01/30 04:15:42;;;;;;;5.40;1.20;;;;;;;;;;4844904;29;20206;-95
2021/01/30 04:18:10;;;;;;;3.20;1.00;;;;;;;;;;4833773;29;20219;-94
2021/01/30 04:20:38;;;;;;;4.23;1.00;;;;;;;;;;4862497;29;20211;-93
2021/01/30 04:23:07;;;;;;;5.93;1.00;;;;;;;;;;4845429;29;20245;-95
2021/01/30 04:25:35;;;;;;;4.67;0.83;;;;;;;;;;4836239;29;20211;-94
2021/01/30 04:28:03;;;;;;;6.30;0.97;;;;;;;;;;4846934;29;20203;-93
2021/01/30 04:30:33;;;;;;;4.60;1.13;;;;;;;;;;4842036;29;20213;-93
2021/01/30 04:33:05;;;;;;;3.00;0.97;;;;;;;;;;4833308;29;20234;-95
2021/01/30 04:35:36;;;;;;;6.27;1.00;;;;;;;;;;4851422;29;20217;-94
2021/01/30 04:38:06;;;;;;;3.63;0.90;;;;;;;;;;4845022;29;20203;-95
2021/01/30 04:40:36;;;;;;;2.33;1.53;;;;;;;;;;4847409;29;20225;-96
2021/01/30 04:43:16;;;;;;;5.93;1.10;;;;;;;;;;4839175;29;20233;-95
2021/01/30 04:45:59;;;;;;;5.03;1.10;;;;;;;;;;4847817;29;20289;-94
2021/01/30 04:48:38;;;;;;;6.57;1.10;;;;;;;;;;4848222;29;20199;-95
2021/01/30 04:51:13;;;;;;;3.63;1.07;;;;;;;;;;4863501;29;20243;-95
2021/01/30 04:54:08;;;;;;;2.80;1.07;;;;;;;;;;4853225;29;20204;-94
2021/01/30 04:56:46;;;;;;;3.83;1.00;;;;;;;;;;4848954;29;20224;-94
2021/01/30 04:59:23;;;;;;;2.40;0.87;;;;;;;;;;4835905;29;20217;-93
2021/01/30 05:01:56;;;;;;;5.43;1.20;;;;;;;;;;4830011;29;20202;-94
2021/01/30 05:04:26;;;;;;;5.23;1.10;;;;;;;;;;4837440;29;20206;-90
2021/01/30 05:07:00;;;;;;;4.90;1.17;;;;;;;;;;4835653;29;20229;-94
2021/01/30 05:09:32;;;;;;;4.30;1.33;;;;;;;;;;4833932;29;20194;-94
2021/01/30 05:12:06;;;;;;;4.07;0.77;;;;;;;;;;4839481;29;20244;-93
2021/01/30 05:14:39;;;;;;;4.20;0.83;;;;;;;;;;4849215;29;20211;-94
2021/01/30 05:17:11;;;;;;;5.13;1.30;;;;;;;;;;4868834;29;20217;-93
2021/01/30 05:19:43;;;;;;;5.97;1.10;;;;;;;;;;4829063;29;20194;-93
2021/01/30 05:22:13;;;;;;;3.47;1.10;;;;;;;;;;4838408;29;20215;-93
2021/01/30 05:24:44;;;;;;;3.93;1.00;;;;;;;;;;4844782;29;20205;-93
2021/01/30 05:27:32;;;;;;;4.57;1.17;;;;;;;;;;4832931;29;20228;-94
2021/01/30 05:30:06;;;;;;;5.17;1.27;;;;;;;;;;4832894;29;20206;-92
2021/01/30 05:32:41;;;;;;;6.63;1.70;;;;;;;;;;4828999;29;20215;-93
2021/01/30 05:35:13;;;;;;;4.57;1.20;;;;;;;;;;4840696;29;20202;-92
2021/01/30 05:37:48;;;;;;;10.27;2.73;;;;;;;;;;4834173;29;20653;-95
2021/01/30 05:40:23;;;;;;;6.50;1.27;;;;;;;;;;4827412;29;20811;-92
2021/01/30 05:43:01;;;;;;;4.37;1.23;;;;;;;;;;4834161;29;20222;-92
2021/01/30 05:45:38;;;;;;;5.40;1.30;;;;;;;;;;4861033;29;20209;-91
2021/01/30 05:48:11;;;;;;;5.80;1.70;;;;;;;;;;4837014;29;20232;-94
2021/01/30 05:50:43;;;;;;;6.93;1.20;;;;;;;;;;4831870;29;20600;-92
2021/01/30 05:53:12;;;;;;;6.57;1.33;;;;;;;;;;4831823;29;20228;-96
2021/01/30 05:55:39;;;;;;;8.50;1.87;;;;;;;;;;4844911;29;20199;-93
2021/01/30 05:58:10;;;;;;;6.43;1.63;;;;;;;;;;4843164;29;20207;-93
2021/01/30 06:00:38;;;;;;;8.40;1.50;;;;;;;;;;4831438;29;20214;-94
2021/01/30 06:03:10;;;;;;;7.73;1.73;;;;;;;;;;4838159;29;20217;-93
2021/01/30 06:05:41;;;;;;;7.63;1.43;;;;;;;;;;4829818;29;20206;-93
2021/01/30 06:08:16;;;;;;;5.97;1.40;;;;;;;;;;4851491;29;20361;-93
2021/01/30 06:10:45;;;;;;;7.73;1.27;;;;;;;;;;4854696;29;20206;-93
2021/01/30 06:13:17;;;;;;;8.70;1.83;;;;;;;;;;4848206;29;20862;-92
2021/01/30 06:15:46;;;;;;;4.70;1.50;;;;;;;;;;4838328;29;20194;-93
2021/01/30 06:18:36;;;;;;;7.47;1.50;;;;;;;;;;4839492;29;20189;-92
2021/01/30 06:21:11;;;;;;;6.30;1.50;;;;;;;;;;4855481;29;20215;-94
2021/01/30 06:23:40;;;;;;;8.20;1.27;;;;;;;;;;4845470;29;20222;-90
2021/01/30 06:26:13;;;;;;;6.50;2.27;;;;;;;;;;4838867;29;20199;-92
2021/01/30 06:28:45;;;;;;;6.00;1.27;;;;;;;;;;4841959;29;20209;-94
2021/01/30 06:31:25;;;;;;;3.73;1.37;;;;;;;;;;4837528;29;20210;-93
2021/01/30 06:33:58;;;;;;;7.53;1.20;;;;;;;;;;4870344;29;20206;-93
2021/01/30 06:36:28;;;;;;;6.83;1.40;;;;;;;;;;4846022;29;20211;-93
2021/01/30 06:39:00;;;;;;;4.40;1.37;;;;;;;;;;4838538;29;20199;-93
2021/01/30 06:41:30;;;;;;;5.67;1.40;;;;;;;;;;4847858;29;20207;-92
2021/01/30 06:44:13;;;;;;;5.33;1.73;;;;;;;;;;4833650;29;20198;-94
2021/01/30 06:47:06;;;;;;;6.57;1.73;;;;;;;;;;4853498;29;20212;-93
2021/01/30 06:49:37;;;;;;;6.87;1.40;;;;;;;;;;4854256;29;20202;-93
2021/01/30 06:52:08;;;;;;;6.50;1.17;;;;;;;;;;4839363;29;20218;-93
2021/01/30 06:54:36;;;;;;;6.30;1.23;;;;;;;;;;4846909;29;20213;-93
2021/01/30 06:57:11;;;;;;;9.40;1.87;;;;;;;;;;4833205;29;20221;-93
2021/01/30 06:59:51;;;;;;;9.30;1.80;;;;;;;;;;4839813;29;20214;-92
2021/01/30 07:02:22;;;;;;;8.33;1.53;;;;;;;;;;4849274;29;20235;-90
2021/01/30 07:05:18;;;;;;;3.97;1.47;;;;;;;;;;4838639;29;20202;-94
2021/01/30 07:08:11;;;;;;;9.13;1.83;;;;;;;;;;4830862;29;20227;-92
2021/01/30 07:10:47;;;;;;;7.73;1.73;;;;;;;;;;4843670;29;20206;-91
2021/01/30 07:13:29;;;;;;;5.37;1.50;;;;;;;;;;4841115;29;20238;-94
2021/01/30 07:16:06;;;;;;;5.30;1.40;;;;;;;;;;4852264;29;20202;-96
2021/01/30 07:18:45;;;;;;;7.63;1.70;;;;;;;;;;4847831;29;20208;-94
2021/01/30 07:21:21;;;;;;;8.00;2.30;;;;;;;;;;4838859;29;20197;-92
2021/01/30 07:24:08;;;;;;;4.67;1.60;;;;;;;;;;4857108;29;20199;-94
2021/01/30 07:26:40;;;;;;;7.90;2.30;;;;;;;;;;4851058;29;20218;-95
2021/01/30 07:29:11;;;;;;;9.70;1.97;;;;;;;;;;4844394;29;20215;-95
2021/01/30 07:31:42;;;;;;;8.53;1.77;;;;;;;;;;4836713;29;20264;-92
2021/01/30 07:34:18;;;;;;;8.77;1.97;;;;;;;;;;4846101;29;20217;-93
2021/01/30 07:36:55;;;;;;;7.17;2.17;;;;;;;;;;4839649;29;20206;-94
2021/01/30 07:39:32;;;;;;;11.67;2.17;;;;;;;;;;4845840;29;20205;-93
2021/01/30 07:42:02;;;;;;;13.37;1.93;;;;;;;;;;4846114;29;20210;-95
2021/01/30 07:44:36;;;;;;;10.73;1.50;;;;;;;;;;4841106;29;20209;-95
2021/01/30 07:47:16;;;;;;;5.23;1.67;;;;;;;;;;4843733;29;20218;-94
2021/01/30 07:49:47;;;;;;;6.17;1.80;;;;;;;;;;4846396;29;20210;-94
2021/01/30 07:52:20;;;;;;;4.87;1.50;;;;;;;;;;4841256;29;20226;-94
2021/01/30 07:55:01;;;;;;;6.77;1.83;;;;;;;;;;4841188;29;20209;-95
2021/01/30 07:57:56;;;;;;;10.40;2.13;;;;;;;;;;4842954;29;20205;-95
2021/01/30 08:00:33;;;;;;;7.57;2.07;;;;;;;;;;4843586;29;20206;-94
2021/01/30 08:03:27;;;;;;;4.57;1.47;;;;;;;;;;4854570;29;20210;-95
2021/01/30 08:06:04;;;;;;;4.17;1.73;;;;;;;;;;4846068;29;20209;-94
2021/01/30 08:08:40;;;;;;;6.33;1.10;;;;;;;;;;4842053;29;20234;-94
2021/01/30 08:11:18;;;;;;;4.87;1.20;;;;;;;;;;4849303;29;20221;-94
2021/01/30 08:13:52;;;;;;;3.27;1.30;;;;;;;;;;4841368;29;20201;-93
2021/01/30 08:16:26;;;;;;;2.50;0.90;;;;;;;;;;4853889;29;20210;-94
2021/01/30 08:18:59;;;;;;;5.73;1.27;;;;;;;;;;4843884;29;20196;-94
2021/01/30 08:21:33;;;;;;;5.13;1.20;;;;;;;;;;4846068;29;20201;-96
2021/01/30 08:24:23;;;;;;;4.67;1.00;;;;;;;;;;4851092;29;20205;-94
2021/01/30 08:26:56;;;;;;;5.40;1.53;;;;;;;;;;4837898;29;20186;-95
2021/01/30 08:29:28;;;;;;;8.00;2.13;;;;;;;;;;4840995;29;20317;-95
2021/01/30 08:32:00;;;;;;;6.73;1.40;;;;;;;;;;4845506;29;20211;-95
2021/01/30 08:34:36;;;;;;;6.17;1.50;;;;;;;;;;4838882;29;20207;-93
2021/01/30 08:37:36;;;;;;;5.57;1.30;;;;;;;;;;4837274;29;20198;-95
2021/01/30 08:40:16;;;;;;;3.43;1.30;;;;;;;;;;4852688;29;20190;-94
2021/01/30 08:42:56;;;;;;;4.63;1.17;;;;;;;;;;4852621;29;20227;-95
2021/01/30 08:45:28;;;;;;;3.63;1.10;;;;;;;;;;4845172;29;20198;-93
2021/01/30 08:48:25;;;;;;;4.47;1.20;;;;;;;;;;4849641;29;20203;-94
2021/01/30 08:50:54;;;;;;;5.37;1.50;;;;;;;;;;4845862;29;20216;-93
2021/01/30 08:53:31;;;;;;;4.27;1.13;;;;;;;;;;4836060;29;20240;-95
2021/01/30 08:56:01;;;;;;;4.70;1.33;;;;;;;;;;4837797;29;20217;-91
2021/01/30 08:58:49;;;;;;;5.77;1.20;;;;;;;;;;4834318;29;20211;-92
2021/01/30 09:01:41;;;;;;;8.33;1.50;;;;;;;;;;4832666;29;20205;-89
2021/01/30 09:04:48;;;;;;;9.43;1.73;;;;;;;;;;4849152;29;20589;-89
2021/01/30 09:07:45;;;;;;;7.53;1.50;;;;;;;;;;4866631;29;20227;-90
2021/01/30 09:10:35;;;;;;;6.70;1.63;;;;;;;;;;4862846;29;20230;-93
2021/01/30 09:13:11;;;;;;;9.33;3.17;;;;;;;;;;4836767;29;20235;-90
2021/01/30 09:16:00;;;;;;;5.33;1.80;;;;;;;;;;4837422;29;20206;-95
2021/01/30 09:18:59;;;;;;;5.10;1.40;;;;;;;;;;4841894;29;20225;-94
2021/01/30 09:21:49;;;;;;;6.37;1.70;;;;;;;;;;4835813;29;20199;-95
2021/01/30 09:24:49;;;;;;;4.40;1.83;;;;;;;;;;4837195;29;20205;-95
2021/01/30 09:27:22;;;;;;;5.37;1.37;;;;;;;;;;4861353;29;20190;-93
2021/01/30 09:29:52;;;;;;;4.23;1.30;;;;;;;;;;4839283;29;20229;-94
2021/01/30 09:32:31;;;;;;;4.37;1.53;;;;;;;;;;4847334;29;20229;-94
2021/01/30 09:35:04;;;;;;;3.70;1.30;;;;;;;;;;4844147;29;20204;-93
2021/01/30 09:37:36;;;;;;;7.37;1.70;;;;;;;;;;4851739;29;20224;-95
2021/01/30 09:40:07;;;;;;;7.10;1.87;;;;;;;;;;4848522;29;20215;-93
2021/01/30 09:42:35;;;;;;;4.87;1.30;;;;;;;;;;4854360;29;20226;-95
2021/01/30 09:45:12;;;;;;;9.27;1.80;;;;;;;;;;4853625;29;20201;-94
2021/01/30 09:48:07;;;;;;;4.07;1.40;;;;;;;;;;4842035;29;20211;-96
2021/01/30 09:50:38;;;;;;;4.87;1.67;;;;;;;;;;4831886;29;20193;-94
2021/01/30 09:53:08;;;;;;;5.37;1.90;;;;;;;;;;4857415;29;20215;-94
2021/01/30 09:55:37;;;;;;;4.90;1.50;;;;;;;;;;4843509;29;20568;-93
2021/01/30 09:58:16;;;;;;;5.03;1.60;;;;;;;;;;4836056;29;20210;-91
2021/01/30 10:00:49;;;;;;;4.97;1.37;;;;;;;;;;4852348;29;20210;-93
2021/01/30 10:03:20;;;;;;;2.40;1.73;;;;;;;;;;4840117;29;20238;-93
2021/01/30 10:05:49;;;;;;;2.43;1.20;;;;;;;;;;4837200;29;20190;-93
2021/01/30 10:08:23;;;;;;;3.93;1.80;;;;;;;;;;4840450;29;20241;-93
2021/01/30 10:11:01;;;;;;;3.43;1.20;;;;;;;;;;4852734;29;20220;-93
2021/01/30 10:13:29;;;;;;;3.13;1.97;;;;;;;;;;4856405;29;20435;-94
2021/01/30 10:16:02;;;;;;;5.50;1.70;;;;;;;;;;4836372;29;20201;-93
2021/01/30 10:18:33;;;;;;;4.17;1.73;;;;;;;;;;4847341;29;20211;-94
2021/01/30 10:21:03;;;;;;;5.20;1.93;;;;;;;;;;4843955;29;20209;-94
2021/01/30 10:23:36;;;;;;;2.90;1.50;;;;;;;;;;4836992;29;20223;-95
2021/01/30 10:26:26;;;;;;;4.80;1.40;;;;;;;;;;4861960;29;20194;-94
2021/01/30 10:28:56;;;;;;;1.53;1.30;;;;;;;;;;4831506;29;20229;-91
2021/01/30 10:31:27;;;;;;;3.70;1.50;;;;;;;;;;4831471;29;23187;-91
2021/01/30 10:33:59;;;;;;;4.07;1.70;;;;;;;;;;4835285;29;20199;-93
2021/01/30 10:36:28;;;;;;;4.03;1.30;;;;;;;;;;4863743;29;20213;-92
2021/01/30 10:38:56;;;;;;;3.23;1.40;;;;;;;;;;4842195;29;20200;-93
2021/01/30 10:41:26;;;;;;;5.10;1.60;;;;;;;;;;4850867;29;20199;-94
2021/01/30 10:44:01;;;;;;;4.47;1.50;;;;;;;;;;4842439;29;20187;-94
2021/01/30 10:46:39;;;;;;;2.73;1.50;;;;;;;;;;4856208;29;20198;-93
2021/01/30 10:49:11;;;;;;;5.43;1.67;;;;;;;;;;4842045;29;20235;-93
2021/01/30 10:51:38;;;;;;;4.20;1.67;;;;;;;;;;4839120;29;20229;-93
2021/01/30 10:54:27;;;;;;;4.40;1.47;;;;;;;;;;4861862;29;20207;-94
2021/01/30 10:57:07;;;;;;;5.30;1.90;;;;;;;;;;4847221;29;20200;-92
2021/01/30 10:59:44;;;;;;;6.50;1.50;;;;;;;;;;4844548;29;20213;-92
2021/01/30 11:02:41;;;;;;;5.53;1.33;;;;;;;;;;4837547;29;20229;-91
2021/01/30 11:05:26;;;;;;;4.97;1.70;;;;;;;;;;4833857;29;20211;-92
2021/01/30 11:07:58;;;;;;;3.80;1.53;;;;;;;;;;4864007;29;20215;-92
2021/01/30 11:10:33;;;;;;;2.50;1.40;;;;;;;;;;4837397;29;20215;-92
2021/01/30 11:13:09;;;;;;;4.10;1.50;;;;;;;;;;4836984;29;20783;-93
2021/01/30 11:15:41;;;;;;;3.97;1.33;;;;;;;;;;4856244;29;20200;-93
2021/01/30 11:18:32;;;;;;;4.70;1.43;;;;;;;;;;4839089;29;20200;-95
2021/01/30 11:21:01;;;;;;;3.93;1.50;;;;;;;;;;4844748;29;20210;-94
2021/01/30 11:23:39;;;;;;;1.73;1.00;;;;;;;;;;4834795;29;20226;-94
2021/01/30 11:26:15;;;;;;;4.27;1.53;;;;;;;;;;4868597;24;20222;-94
2021/01/30 11:28:45;;;;;;;4.40;1.30;;;;;;;;;;4855920;29;20234;-95
2021/01/30 11:31:14;;;;;;;4.13;1.30;;;;;;;;;;4844191;29;20194;-95
2021/01/30 11:33:44;;;;;;;2.43;1.27;;;;;;;;;;4836561;29;20199;-93
2021/01/30 11:36:16;;;;;;;3.17;1.30;;;;;;;;;;4846835;29;20227;-93
2021/01/30 11:38:54;;;;;;;1.97;1.50;;;;;;;;;;4861883;29;20195;-94
2021/01/30 11:54:18;;;;;;;3.43;1.77;;;;;;;;;;738145;23;20502;31
2021/01/30 11:56:47;;;;;;;3.37;2.00;;;;;;;;;;4828133;29;20192;-95
2021/01/30 11:59:15;;;;;;;6.57;1.80;;;;;;;;;;4840753;29;20216;-91
2021/01/30 12:17:46;;;;;;;5.30;1.83;;;;;;;;;;4816602;29;20204;-94
2021/01/30 12:20:20;;;;;;;6.30;1.80;;;;;;;;;;4798937;29;20222;-94
2021/01/30 12:22:49;;;;;;;2.40;1.33;;;;;;;;;;4815991;29;20221;-94
2021/01/30 12:25:18;;;;;;;1.87;1.40;;;;;;;;;;4803864;29;20195;-93
2021/01/30 12:27:50;;;;;;;2.30;1.43;;;;;;;;;;4802646;29;20215;-94
2021/01/30 12:30:20;;;;;;;3.93;1.57;;;;;;;;;;4798174;29;20226;-95
2021/01/30 12:32:50;;;;;;;3.73;1.53;;;;;;;;;;4789803;29;20227;-92
2021/01/30 12:35:19;;;;;;;3.63;1.60;;;;;;;;;;4797608;29;20196;-93
2021/01/30 12:37:51;;;;;;;2.83;1.50;;;;;;;;;;4789407;29;20207;-94
2021/01/30 12:40:20;;;;;;;4.03;1.43;;;;;;;;;;4790339;29;20207;-94
2021/01/30 12:42:48;;;;;;;3.00;1.40;;;;;;;;;;4824999;29;20222;-95
2021/01/30 12:45:16;;;;;;;4.23;2.00;;;;;;;;;;4801775;29;20200;-92
2021/01/30 12:47:45;;;;;;;3.73;1.40;;;;;;;;;;4798647;29;20211;-93
2021/01/30 12:50:15;;;;;;;2.33;1.30;;;;;;;;;;4806489;29;20229;-94
2021/01/30 12:52:43;;;;;;;3.50;1.40;;;;;;;;;;4799312;29;20215;-92
2021/01/30 12:55:12;;;;;;;2.13;1.33;;;;;;;;;;4794175;29;20226;-94
2021/01/30 12:57:41;;;;;;;2.33;1.37;;;;;;;;;;4812325;29;20193;-95
2021/01/30 13:00:12;;;;;;;3.17;1.17;;;;;;;;;;4789985;29;20201;-94
2021/01/30 13:08:46;;;;;;;3.67;1.40;;;;;;;;;;4820769;29;20229;-93
2021/01/30 13:11:14;;;;;;;1.87;1.23;;;;;;;;;;4803341;29;20197;-93
2021/01/30 13:13:42;;;;;;;3.07;1.27;;;;;;;;;;4813201;29;20309;-94
2021/01/30 13:16:11;;;;;;;4.93;1.40;;;;;;;;;;4793151;29;20200;-93
2021/01/30 13:18:39;;;;;;;4.80;2.20;;;;;;;;;;4812864;29;20211;-93
2021/01/30 13:21:07;;;;;;;2.00;1.40;;;;;;;;;;4801959;29;20202;-93
2021/01/30 13:23:46;;;;;;;4.93;1.70;;;;;;;;;;4792022;29;20212;-94
2021/01/30 13:26:14;;;;;;;2.60;1.20;;;;;;;;;;4807970;29;20208;-94
2021/01/30 13:28:41;;;;;;;3.07;1.27;;;;;;;;;;4806114;29;20231;-92
2021/01/30 13:31:10;;;;;;;2.10;1.17;;;;;;;;;;4801527;29;20217;-93
2021/01/30 13:33:38;;;;;;;3.70;1.20;;;;;;;;;;4801998;29;20235;-92
2021/01/30 13:36:05;;;;;;;2.20;1.37;;;;;;;;;;4805036;29;20239;-94
2021/01/30 14:19:25;;;;;;;5.57;2.67;;;;;;;;;;4843011;29;20247;-94
2021/01/30 14:22:10;;;;;;;5.63;3.17;;;;;;;;;;4833681;29;20720;-94
2021/01/30 14:24:42;;;;;;;4.70;2.90;;;;;;;;;;4836270;29;20595;-93
2021/01/30 14:29:58;;;;;;;5.73;3.40;;;;;;;;;;4836569;29;20242;-93
2021/01/30 14:32:26;;;;;;;5.00;3.50;;;;;;;;;;4833993;29;20226;-93
2021/01/30 14:34:55;;;;;;;4.93;3.07;;;;;;;;;;4855615;29;20215;-94
2021/01/30 14:37:23;;;;;;;5.77;3.90;;;;;;;;;;4843276;29;20192;-94
2021/01/30 14:39:50;;;;;;;5.90;3.40;;;;;;;;;;4854460;29;20218;-94
2021/01/30 14:42:18;;;;;;;7.17;3.67;;;;;;;;;;4840642;29;20231;-95
2021/01/30 14:44:46;;;;;;;4.53;2.73;;;;;;;;;;4845354;29;20191;-94
2021/01/30 14:47:17;;;;;;;4.87;3.07;;;;;;;;;;4849023;29;20196;-95
2021/01/30 14:49:45;;;;;;;4.37;2.90;;;;;;;;;;4849858;29;20223;-94
2021/01/30 14:52:14;;;;;;;4.87;3.43;;;;;;;;;;4844909;29;20220;-94
2021/01/30 14:54:42;;;;;;;3.33;2.50;;;;;;;;;;4851861;29;20191;-93
2021/01/30 14:57:10;;;;;;;5.40;3.40;;;;;;;;;;4851722;29;20195;-93
2021/01/30 14:59:38;;;;;;;5.40;3.40;;;;;;;;;;4844130;29;20256;-94
2021/01/30 15:02:07;;;;;;;5.27;3.60;;;;;;;;;;4833415;29;20230;-94
2021/01/30 15:04:39;;;;;;;4.20;3.77;;;;;;;;;;4825466;29;20215;-93
2021/01/30 17:14:21;;;;;;;6.77;3.27;;;;;;;;;;4846649;29;20209;-94
2021/01/30 17:16:50;;;;;;;4.10;2.90;;;;;;;;;;4834638;29;20215;-94
2021/01/30 17:19:18;;;;;;;4.80;3.03;;;;;;;;;;4825124;29;20211;-94
2021/01/30 17:21:45;;;;;;;3.80;3.37;;;;;;;;;;4841987;29;20530;-93
2021/01/30 17:24:13;;;;;;;4.60;3.63;;;;;;;;;;4841331;29;20203;-94
2021/01/30 17:26:43;;;;;;;3.77;3.20;;;;;;;;;;4823025;29;20234;-92
2021/01/30 17:29:10;;;;;;;4.30;3.57;;;;;;;;;;4839183;29;20191;-94
2021/01/30 17:31:39;;;;;;;4.83;4.03;;;;;;;;;;4835078;29;20227;-94
2021/01/30 17:34:07;;;;;;;4.90;4.00;;;;;;;;;;4838505;29;20192;-93
2021/01/30 17:36:38;;;;;;;4.70;3.70;;;;;;;;;;4847892;29;20219;-93
2021/01/30 17:39:07;;;;;;;4.03;3.53;;;;;;;;;;4861844;29;20198;-92
2021/01/30 17:41:34;;;;;;;4.40;3.30;;;;;;;;;;4830035;29;20197;-93
2021/01/30 17:44:02;;;;;;;4.60;3.63;;;;;;;;;;4836061;29;20291;-93
2021/01/30 17:46:30;;;;;;;5.33;3.07;;;;;;;;;;4844607;29;20215;-93
2021/01/30 17:48:59;;;;;;;4.97;3.80;;;;;;;;;;4847077;29;20195;-93
2021/01/30 17:51:28;;;;;;;3.80;3.30;;;;;;;;;;4832439;29;20219;-92
2021/01/30 17:53:55;;;;;;;5.37;4.30;;;;;;;;;;4846537;29;20204;-92
2021/01/30 17:56:23;;;;;;;5.13;4.07;;;;;;;;;;4827504;29;20223;-94
2021/01/30 17:58:51;;;;;;;5.57;4.73;;;;;;;;;;4830915;29;20222;-94
2021/01/30 18:01:18;;;;;;;7.63;5.70;;;;;;;;;;4829976;29;20208;-94
2021/01/30 18:03:47;;;;;;;6.33;4.80;;;;;;;;;;4829811;29;20196;-93
2021/01/30 18:33:10;;;;;;;7.03;5.30;;;;;;;;;;4112799;27;20214;-92
2021/01/30 18:35:38;;;;;;;8.03;5.03;;;;;;;;;;4832998;29;20200;-93
2021/01/30 18:38:08;;;;;;;7.37;5.93;;;;;;;;;;4846391;29;20198;-92
2021/01/30 18:40:36;;;;;;;7.73;5.77;;;;;;;;;;4849639;29;20199;-93
2021/01/30 18:43:04;;;;;;;9.20;6.03;;;;;;;;;;4829356;29;20212;-89
2021/01/30 18:45:33;;;;;;;7.70;6.00;;;;;;;;;;4845160;29;20225;-92
2021/01/30 18:48:04;;;;;;;7.33;5.53;;;;;;;;;;4846604;29;20195;-93
2021/01/30 18:50:39;;;;;;;10.03;6.10;;;;;;;;;;4842149;29;20223;-92
2021/01/30 18:53:12;;;;;;;7.03;5.93;;;;;;;;;;4841803;29;20208;-92
2021/01/30 18:56:02;;;;;;;;;;;;;;;;;;;;;
2021/01/30 18:58:48;;;;;;;6.90;5.03;;;;;;;;;;4831504;29;20226;-94
2021/01/30 19:01:50;;;;;;;7.47;6.17;;;;;;;;;;4842952;29;20221;-93
2021/01/30 19:04:27;;;;;;;7.33;5.47;;;;;;;;;;4854371;29;20201;-95
